Time;durP1;ratioP1;P1;durP2;ratioP2;P2;SDS_P1;SDS_P2;PMS_P1;PMS_P2;Temp;Humidity;BMP_temperature;BMP_pressure;BME280_temperature;BME280_humidity;BME280_pressure;Samples;Min_cycle;Max_cycle;Signal;HPM_P1;HPM_P2
2022/03/26 00:01:27;;;;;;;42.90;22.48;;;10.00;61.20;;;;;;5052862;28;20029;-71
2022/03/26 00:03:53;;;;;;;42.08;24.05;;;10.00;61.30;;;;;;5053203;28;20025;-71
2022/03/26 00:06:18;;;;;;;40.13;21.52;;;10.10;61.40;;;;;;5053641;28;20116;-70
2022/03/26 00:08:44;;;;;;;41.33;22.35;;;10.10;60.60;;;;;;5052941;28;20025;-70
2022/03/26 00:11:09;;;;;;;38.75;23.63;;;10.10;60.80;;;;;;5045836;28;20390;-70
2022/03/26 00:13:35;;;;;;;43.58;24.30;;;;;;;;;;5048792;28;20094;-70
2022/03/26 00:16:02;;;;;;;40.45;22.90;;;;;;;;;;5053768;28;20610;-69
2022/03/26 00:18:28;;;;;;;45.13;22.55;;;;;;;;;;5041340;28;20464;-69
2022/03/26 00:20:54;;;;;;;42.50;23.80;;;;;;;;;;5039508;28;20344;-69
2022/03/26 00:23:20;;;;;;;41.58;23.20;;;;;;;;;;5051661;28;20060;-69
2022/03/26 00:25:45;;;;;;;43.55;22.83;;;;;;;;;;5051720;28;20021;-69
2022/03/26 00:28:11;;;;;;;44.47;24.13;;;;;;;;;;5045931;28;20024;-68
2022/03/26 00:30:37;;;;;;;36.20;22.42;;;;;;;;;;5053385;28;20104;-70
2022/03/26 00:33:04;;;;;;;45.83;22.15;;;;;;;;;;5052444;28;20070;-70
2022/03/26 00:35:30;;;;;;;40.42;21.75;;;;;;;;;;5051843;28;20033;-70
2022/03/26 00:37:55;;;;;;;39.50;21.60;;;;;;;;;;5053048;28;20529;-70
2022/03/26 00:40:22;;;;;;;40.40;21.50;;;;;;;;;;5050097;28;20451;-70
2022/03/26 00:42:48;;;;;;;40.13;22.27;;;;;;;;;;5041627;28;20029;-69
2022/03/26 00:45:14;;;;;;;40.72;22.85;;;;;;;;;;5044160;28;20025;-70
2022/03/26 00:47:40;;;;;;;37.03;21.55;;;;;;;;;;5053070;28;20029;-70
2022/03/26 00:50:06;;;;;;;45.08;22.80;;;;;;;;;;5053180;28;20056;-69
2022/03/26 00:52:32;;;;;;;41.95;22.63;;;;;;;;;;5052071;28;20093;-70
2022/03/26 00:54:58;;;;;;;43.03;22.58;;;;;;;;;;5052848;28;20069;-68
2022/03/26 00:57:24;;;;;;;44.13;21.98;;;;;;;;;;5050583;28;20033;-68
2022/03/26 00:59:50;;;;;;;38.05;21.50;;;;;;;;;;5053042;28;20036;-69
2022/03/26 01:02:17;;;;;;;44.47;22.55;;;;;;;;;;5057806;28;20114;-69
2022/03/26 01:04:43;;;;;;;39.25;22.17;;;;;;;;;;5060396;28;20037;-69
2022/03/26 01:07:09;;;;;;;41.42;21.75;;;;;;;;;;5052999;28;20430;-69
2022/03/26 01:09:35;;;;;;;38.08;22.35;;;;;;;;;;5052893;28;20036;-69
2022/03/26 01:12:01;;;;;;;41.08;23.38;;;;;;;;;;5061554;28;20448;-69
2022/03/26 01:14:27;;;;;;;42.75;23.27;;;;;;;;;;5041653;28;20669;-69
2022/03/26 01:16:53;;;;;;;42.80;22.80;;;;;;;;;;5046677;28;20037;-68
2022/03/26 01:19:19;;;;;;;40.40;22.05;;;;;;;;;;5047422;28;20437;-70
2022/03/26 01:21:45;;;;;;;45.88;23.15;;;;;;;;;;5051987;28;20107;-70
2022/03/26 01:24:11;;;;;;;42.47;22.75;;;;;;;;;;5052236;28;20082;-70
2022/03/26 01:26:37;;;;;;;42.10;23.65;;;;;;;;;;5048971;28;20032;-70
2022/03/26 01:29:04;;;;;;;42.22;23.08;;;;;;;;;;5051794;28;20445;-70
2022/03/26 01:31:30;;;;;;;45.72;24.35;;;;;;;;;;5051762;28;20465;-71
2022/03/26 01:33:56;;;;;;;39.97;24.25;;;;;;;;;;5050728;28;20060;-71
2022/03/26 01:36:22;;;;;;;44.65;24.52;;;10.00;61.60;;;;;;5050563;28;20037;-70
2022/03/26 01:38:48;;;;;;;44.42;24.48;;;;;;;;;;5052092;28;20057;-71
2022/03/26 01:41:14;;;;;;;45.22;24.90;;;9.70;64.40;;;;;;5042786;28;20052;-69
2022/03/26 01:43:41;;;;;;;47.22;24.80;;;9.60;65.10;;;;;;5050869;28;20421;-70
2022/03/26 01:46:09;;;;;;;45.22;24.50;;;9.50;65.50;;;;;;5051500;28;20043;-70
2022/03/26 01:48:34;;;;;;;46.28;26.77;;;9.60;65.20;;;;;;5051374;28;20382;-69
2022/03/26 01:51:14;;;;;;;48.20;25.65;;;9.50;65.20;;;;;;5051426;28;20025;-70
2022/03/26 01:53:50;;;;;;;48.70;25.70;;;9.50;65.00;;;;;;5052391;28;20052;-71
2022/03/26 01:56:17;;;;;;;51.15;26.88;;;9.50;65.30;;;;;;5051100;28;20029;-71
2022/03/26 01:58:43;;;;;;;48.05;26.30;;;9.40;65.30;;;;;;5051432;28;20381;-71
2022/03/26 02:01:09;;;;;;;51.88;27.67;;;9.40;65.30;;;;;;5052994;28;20025;-69
2022/03/26 02:03:35;;;;;;;47.95;26.35;;;9.40;65.30;;;;;;5053629;28;20025;-70
2022/03/26 02:06:01;;;;;;;50.33;26.13;;;9.40;65.20;;;;;;5053082;28;20093;-70
2022/03/26 02:08:27;;;;;;;52.13;26.98;;;9.40;65.30;;;;;;5050421;28;20453;-70
2022/03/26 02:10:53;;;;;;;51.53;26.50;;;9.40;65.30;;;;;;5043362;28;20021;-69
2022/03/26 02:13:19;;;;;;;49.22;26.92;;;;;;;;;;5050229;28;20021;-70
2022/03/26 02:15:44;;;;;;;51.67;27.33;;;9.30;65.50;;;;;;5044034;28;20037;-70
2022/03/26 02:18:11;;;;;;;52.78;28.20;;;9.20;65.70;;;;;;5049757;28;20036;-69
2022/03/26 02:20:37;;;;;;;56.22;27.65;;;;;;;;;;5050670;28;20410;-70
2022/03/26 02:23:03;;;;;;;54.00;27.88;;;;;;;;;;5051030;28;20366;-71
2022/03/26 02:25:29;;;;;;;52.30;27.08;;;;;;;;;;5046576;28;20032;-69
2022/03/26 02:27:55;;;;;;;50.97;27.63;;;;;;;;;;5046356;28;20028;-70
2022/03/26 02:30:21;;;;;;;49.25;26.55;;;;;;;;;;5053187;28;20025;-70
2022/03/26 02:32:47;;;;;;;50.40;26.98;;;;;;;;;;5050117;28;20511;-70
2022/03/26 02:35:14;;;;;;;51.30;27.38;;;;;;;;;;5046136;28;20044;-70
2022/03/26 02:37:40;;;;;;;54.10;27.70;;;;;;;;;;5054723;28;20032;-69
2022/03/26 02:40:07;;;;;;;53.65;26.70;;;;;;;;;;5044619;28;20037;-70
2022/03/26 02:42:34;;;;;;;53.28;28.33;;;;;;;;;;5035901;28;20037;-70
2022/03/26 02:45:00;;;;;;;49.05;28.15;;;;;;;;;;5053320;28;20025;-70
2022/03/26 02:47:26;;;;;;;51.85;29.08;;;;;;;;;;5054370;28;20132;-70
2022/03/26 02:49:52;;;;;;;47.63;26.48;;;;;;;;;;5060006;28;20048;-69
2022/03/26 02:52:18;;;;;;;49.42;26.42;;;;;;;;;;5056655;28;20017;-70
2022/03/26 02:54:44;;;;;;;54.30;26.85;;;;;;;;;;5057612;28;20037;-69
2022/03/26 02:57:10;;;;;;;55.28;27.50;;;;;;;;;;5065448;28;20029;-71
2022/03/26 02:59:36;;;;;;;52.10;28.20;;;;;;;;;;5056352;28;20035;-68
2022/03/26 03:02:02;;;;;;;60.63;29.35;;;;;;;;;;5056569;28;20044;-70
2022/03/26 03:04:29;;;;;;;51.22;27.92;;;;;;;;;;5058375;28;20029;-71
2022/03/26 03:06:55;;;;;;;51.70;28.65;;;;;;;;;;5054431;28;20026;-71
2022/03/26 03:09:21;;;;;;;51.33;28.35;;;;;;;;;;5065752;28;20036;-70
2022/03/26 03:11:47;;;;;;;47.92;27.80;;;;;;;;;;5059525;28;20504;-71
2022/03/26 03:14:13;;;;;;;50.15;27.70;;;;;;;;;;5055170;28;20246;-69
2022/03/26 03:16:39;;;;;;;57.95;28.95;;;;;;;;;;5052327;28;20078;-69
2022/03/26 03:19:05;;;;;;;55.28;28.42;;;;;;;;;;5052743;28;20518;-69
2022/03/26 03:21:31;;;;;;;53.53;28.98;;;;;;;;;;5054356;28;20025;-70
2022/03/26 03:23:57;;;;;;;51.67;28.83;;;;;;;;;;5052398;28;20036;-69
2022/03/26 03:26:24;;;;;;;55.08;29.65;;;;;;;;;;5044383;28;20030;-70
2022/03/26 03:28:50;;;;;;;50.03;28.10;;;;;;;;;;5053916;28;20375;-70
2022/03/26 03:31:15;;;;;;;51.72;29.02;;;;;;;;;;5054142;28;20328;-70
2022/03/26 03:33:41;;;;;;;54.75;28.92;;;;;;;;;;5047857;28;20073;-70
2022/03/26 03:36:07;;;;;;;55.83;28.73;;;;;;;;;;5053507;28;20029;-69
2022/03/26 03:38:34;;;;;;;54.25;29.65;;;;;;;;;;5053107;28;20037;-69
2022/03/26 03:41:00;;;;;;;49.88;28.63;;;;;;;;;;5047377;28;20455;-69
2022/03/26 03:43:26;;;;;;;56.22;29.98;;;;;;;;;;5053586;28;20033;-69
2022/03/26 03:45:52;;;;;;;47.53;28.17;;;;;;;;;;5053372;28;20032;-70
2022/03/26 03:48:18;;;;;;;56.00;29.73;;;;;;;;;;5053131;28;20052;-70
2022/03/26 03:50:46;;;;;;;54.25;29.63;;;;;;;;;;5053553;28;20040;-70
2022/03/26 03:53:12;;;;;;;52.72;29.50;;;;;;;;;;5053569;28;20108;-69
2022/03/26 03:55:38;;;;;;;54.50;30.30;;;;;;;;;;5051815;28;20029;-69
2022/03/26 03:58:04;;;;;;;49.08;28.75;;;;;;;;;;5053892;28;20021;-70
2022/03/26 04:00:31;;;;;;;56.08;29.13;;;;;;;;;;5050190;28;20107;-69
2022/03/26 04:02:57;;;;;;;54.97;30.15;;;;;;;;;;5040247;28;20030;-70
2022/03/26 04:05:23;;;;;;;57.45;30.20;;;;;;;;;;5033584;28;20025;-69
2022/03/26 04:07:49;;;;;;;51.75;28.85;;;;;;;;;;5040423;28;20055;-69
2022/03/26 04:10:15;;;;;;;53.90;28.98;;;;;;;;;;5051617;28;20029;-69
2022/03/26 04:12:42;;;;;;;50.60;29.17;;;;;;;;;;5060811;28;20021;-69
2022/03/26 04:15:09;;;;;;;51.13;30.02;;;;;;;;;;5059442;28;20032;-70
2022/03/26 04:17:35;;;;;;;54.58;29.90;;;;;;;;;;5053569;28;20026;-69
2022/03/26 04:20:02;;;;;;;52.22;29.60;;;;;;;;;;5051407;28;20493;-70
2022/03/26 04:22:28;;;;;;;57.83;31.88;;;9.20;65.90;;;;;;5052564;28;20091;-69
2022/03/26 04:24:53;;;;;;;56.13;29.58;;;8.30;74.50;;;;;;5049804;28;20033;-69
2022/03/26 04:27:19;;;;;;;54.88;30.05;;;8.30;74.70;;;;;;5053035;28;20025;-71
2022/03/26 04:29:45;;;;;;;57.97;31.13;;;8.30;74.40;;;;;;5053385;28;20074;-69
2022/03/26 04:32:10;;;;;;;55.72;31.33;;;8.30;74.70;;;;;;5052821;28;20032;-70
2022/03/26 04:34:37;;;;;;;60.33;31.55;;;;;;;;;;5054195;28;20043;-71
2022/03/26 04:37:04;;;;;;;58.95;33.05;;;;;;;;;;5052106;28;20048;-71
2022/03/26 04:39:30;;;;;;;55.65;30.92;;;;;;;;;;5048383;28;20033;-69
2022/03/26 04:41:56;;;;;;;61.42;31.23;;;;;;;;;;5054095;28;20071;-69
2022/03/26 04:44:22;;;;;;;61.35;32.08;;;;;;;;;;5053438;28;20036;-69
2022/03/26 04:46:48;;;;;;;62.88;31.92;;;;;;;;;;5053377;28;20029;-70
2022/03/26 04:49:14;;;;;;;61.65;32.55;;;;;;;;;;5052999;28;20063;-70
2022/03/26 04:51:40;;;;;;;63.03;32.45;;;;;;;;;;5046455;28;20088;-70
2022/03/26 04:54:06;;;;;;;58.92;32.40;;;;;;;;;;5049332;28;20024;-70
2022/03/26 04:56:32;;;;;;;63.85;33.55;;;8.20;74.90;;;;;;5052411;28;20477;-69
2022/03/26 04:58:58;;;;;;;58.00;32.13;;;8.00;77.00;;;;;;5050049;28;20090;-69
2022/03/26 05:01:23;;;;;;;57.78;32.53;;;8.00;76.80;;;;;;5052949;28;20079;-70
2022/03/26 05:03:49;;;;;;;64.22;33.25;;;7.90;76.70;;;;;;5052228;28;20052;-69
2022/03/26 05:06:16;;;;;;;58.65;33.80;;;7.90;77.10;;;;;;5041251;28;20052;-70
2022/03/26 05:08:41;;;;;;;62.45;32.83;;;7.90;76.80;;;;;;5042691;28;20516;-70
2022/03/26 05:11:07;;;;;;;63.15;34.22;;;7.90;77.40;;;;;;5057948;28;20027;-69
2022/03/26 05:13:33;;;;;;;65.97;35.10;;;7.90;77.10;;;;;;5048950;28;20043;-69
2022/03/26 05:15:59;;;;;;;66.45;33.75;;;7.90;77.50;;;;;;5045624;28;20059;-70
2022/03/26 05:18:26;;;;;;;68.25;36.15;;;7.90;77.60;;;;;;5050183;28;20127;-69
2022/03/26 05:20:55;;;;;;;74.47;35.15;;;7.80;77.90;;;;;;5041716;28;20438;-68
2022/03/26 05:23:21;;;;;;;67.78;35.22;;;7.90;77.70;;;;;;5045008;28;20063;-69
2022/03/26 05:25:47;;;;;;;67.65;34.00;;;7.90;77.60;;;;;;5048636;28;20066;-72
2022/03/26 05:28:12;;;;;;;72.20;36.53;;;7.90;77.40;;;;;;5049293;28;20029;-69
2022/03/26 05:30:38;;;;;;;68.60;36.00;;;7.90;77.80;;;;;;5040724;28;20029;-70
2022/03/26 05:33:04;;;;;;;69.13;36.45;;;7.90;78.00;;;;;;5065534;22;20287;-75
2022/03/26 05:35:29;;;;;;;72.38;35.35;;;8.00;77.80;;;;;;5035586;28;20036;-73
2022/03/26 05:37:55;;;;;;;72.07;36.30;;;7.90;77.70;;;;;;5043843;28;20497;-72
2022/03/26 05:40:21;;;;;;;67.25;37.10;;;7.90;77.60;;;;;;5046371;28;20025;-72
2022/03/26 05:42:48;;;;;;;67.63;35.47;;;8.00;77.60;;;;;;5050979;28;20482;-70
2022/03/26 05:45:14;;;;;;;66.47;35.17;;;8.00;77.30;;;;;;5052098;28;20048;-73
2022/03/26 05:47:41;;;;;;;64.32;33.88;;;8.10;77.30;;;;;;5047317;28;20025;-72
2022/03/26 05:50:09;;;;;;;68.35;34.05;;;8.10;76.90;;;;;;5049800;28;20098;-74
2022/03/26 05:52:35;;;;;;;66.82;33.67;;;8.20;76.60;;;;;;5055215;28;20013;-75
2022/03/26 05:55:00;;;;;;;66.68;34.80;;;8.20;76.60;;;;;;5054025;28;20432;-73
2022/03/26 05:57:26;;;;;;;69.32;34.40;;;8.30;76.60;;;;;;5053660;28;20025;-74
2022/03/26 05:59:52;;;;;;;69.03;34.15;;;8.30;76.60;;;;;;5041754;28;20032;-73
2022/03/26 06:02:17;;;;;;;65.28;34.78;;;8.30;76.60;;;;;;5048882;28;20033;-75
2022/03/26 06:04:43;;;;;;;62.20;34.25;;;8.30;76.60;;;;;;5048004;28;20032;-73
2022/03/26 06:07:09;;;;;;;65.43;34.63;;;8.40;76.20;;;;;;5048193;28;20108;-71
2022/03/26 06:09:36;;;;;;;61.85;33.58;;;8.40;76.40;;;;;;5054296;28;20044;-73
2022/03/26 06:12:02;;;;;;;65.15;33.88;;;8.50;75.60;;;;;;5049368;28;20021;-73
2022/03/26 06:14:28;;;;;;;65.65;34.20;;;8.60;75.50;;;;;;5053877;28;20021;-73
2022/03/26 06:16:54;;;;;;;64.88;34.03;;;8.60;75.70;;;;;;5054882;28;20378;-74
2022/03/26 06:19:20;;;;;;;66.93;35.30;;;8.60;75.30;;;;;;5052325;28;20035;-75
2022/03/26 06:21:45;;;;;;;59.20;33.35;;;8.80;74.40;;;;;;5051105;28;20036;-74
2022/03/26 06:24:11;;;;;;;60.25;33.22;;;8.90;74.50;;;;;;5044341;28;20036;-70
2022/03/26 06:26:39;;;;;;;60.95;31.35;;;;;;;;;;5047998;28;20028;-75
2022/03/26 06:29:05;;;;;;;55.33;31.00;;;;;;;;;;5045551;28;20618;-74
2022/03/26 06:31:31;;;;;;;55.28;32.15;;;;;;;;;;5047659;28;20628;-75
2022/03/26 06:33:57;;;;;;;55.00;29.25;;;9.00;74.00;;;;;;5049053;28;20489;-74
2022/03/26 06:36:22;;;;;;;55.08;29.02;;;10.50;69.10;;;;;;5055696;28;20153;-74
2022/03/26 06:38:48;;;;;;;51.55;28.58;;;11.50;65.20;;;;;;5053248;28;20067;-74
2022/03/26 06:41:15;;;;;;;54.60;29.80;;;11.90;63.00;;;;;;5052553;28;20439;-74
2022/03/26 06:43:42;;;;;;;52.85;29.60;;;11.90;62.30;;;;;;5050610;28;20049;-73
2022/03/26 06:46:08;;;;;;;56.50;31.15;;;11.60;63.00;;;;;;5056491;28;20091;-73
2022/03/26 06:48:35;;;;;;;53.50;29.80;;;11.60;63.20;;;;;;5071019;28;20107;-75
2022/03/26 06:51:01;;;;;;;52.92;29.60;;;12.00;62.00;;;;;;5067892;28;20013;-72
2022/03/26 06:53:31;;;;;;;47.80;28.63;;;12.20;61.20;;;;;;5054738;28;20032;-73
2022/03/26 06:55:57;;;;;;;51.67;30.30;;;12.60;60.40;;;;;;5052678;28;20032;-74
2022/03/26 06:58:23;;;;;;;50.47;28.23;;;12.90;58.90;;;;;;5055291;28;20400;-74
2022/03/26 07:00:49;;;;;;;51.33;29.35;;;13.10;57.70;;;;;;5053640;28;20100;-75
2022/03/26 07:03:16;;;;;;;51.08;29.77;;;13.30;57.10;;;;;;5052398;28;20032;-75
2022/03/26 07:05:42;;;;;;;51.67;30.35;;;13.40;56.20;;;;;;5061624;28;20061;-74
2022/03/26 07:08:07;;;;;;;50.00;29.95;;;13.80;55.30;;;;;;5049935;28;20036;-74
2022/03/26 07:10:34;;;;;;;46.72;29.15;;;13.80;55.10;;;;;;5037331;28;20025;-74
2022/03/26 07:12:59;;;;;;;49.92;27.55;;;13.80;55.30;;;;;;5053745;28;20374;-74
2022/03/26 07:15:25;;;;;;;47.60;28.67;;;13.90;54.50;;;;;;5053721;28;20013;-74
2022/03/26 07:17:50;;;;;;;47.40;28.27;;;13.60;55.40;;;;;;5054562;28;20065;-75
2022/03/26 07:20:16;;;;;;;45.20;28.70;;;13.90;54.40;;;;;;5053504;28;20741;-69
2022/03/26 07:22:44;;;;;;;43.45;28.10;;;14.00;54.00;;;;;;5060952;28;20021;-73
2022/03/26 07:25:10;;;;;;;52.45;30.20;;;13.80;54.80;;;;;;5054959;28;20037;-73
2022/03/26 07:27:37;;;;;;;51.67;30.83;;;13.90;54.20;;;;;;5049480;28;20538;-74
2022/03/26 07:30:04;;;;;;;46.72;29.20;;;13.90;54.20;;;;;;5054283;28;20069;-75
2022/03/26 07:32:30;;;;;;;45.47;29.08;;;14.00;54.20;;;;;;5052416;28;20067;-74
2022/03/26 07:34:56;;;;;;;47.65;28.38;;;14.10;53.50;;;;;;5058128;28;20037;-75
2022/03/26 07:37:23;;;;;;;49.45;29.75;;;14.30;53.60;;;;;;5052866;28;20032;-74
2022/03/26 07:39:50;;;;;;;46.10;29.25;;;14.60;52.30;;;;;;5054415;28;20068;-74
2022/03/26 07:42:16;;;;;;;49.15;28.05;;;14.70;52.00;;;;;;5048524;28;20035;-73
2022/03/26 07:44:44;;;;;;;47.03;29.20;;;14.90;51.60;;;;;;5049057;28;20110;-73
2022/03/26 07:47:10;;;;;;;45.30;28.42;;;14.70;52.10;;;;;;5050059;28;20090;-72
2022/03/26 07:49:36;;;;;;;41.22;27.02;;;14.50;52.60;;;;;;5051058;28;20584;-73
2022/03/26 07:52:02;;;;;;;43.35;27.27;;;14.60;52.80;;;;;;5050863;28;20021;-74
2022/03/26 07:54:28;;;;;;;47.28;28.38;;;14.40;53.00;;;;;;5051305;28;20021;-73
2022/03/26 07:56:53;;;;;;;48.97;29.63;;;14.60;52.90;;;;;;5051781;28;20068;-73
2022/03/26 07:59:19;;;;;;;49.60;31.97;;;;;;;;;;5051125;28;20415;-69
2022/03/26 08:01:45;;;;;;;45.47;28.95;;;;;;;;;;5051027;28;20035;-67
2022/03/26 08:04:12;;;;;;;51.13;28.42;;;;;;;;;;5052372;28;20047;-68
2022/03/26 08:06:38;;;;;;;45.88;29.30;;;;;;;;;;5051290;28;20029;-71
2022/03/26 08:09:04;;;;;;;41.05;26.60;;;;;;;;;;5052789;28;20099;-73
2022/03/26 08:11:30;;;;;;;43.92;27.13;;;;;;;;;;5045507;28;20023;-67
2022/03/26 08:13:56;;;;;;;53.35;32.50;;;;;;;;;;5049790;28;20388;-73
2022/03/26 08:16:22;;;;;;;43.88;27.50;;;;;;;;;;5051994;28;20112;-73
2022/03/26 08:18:48;;;;;;;39.30;25.40;;;;;;;;;;5053444;28;20338;-73
2022/03/26 08:21:15;;;;;;;41.50;26.50;;;;;;;;;;5058895;28;20032;-72
2022/03/26 08:23:41;;;;;;;39.42;26.27;;;;;;;;;;5053299;28;20021;-69
2022/03/26 08:26:22;;;;;;;39.70;25.98;;;;;;;;;;5051061;28;20029;-70
2022/03/26 08:28:52;;;;;;;39.90;25.38;;;;;;;;;;5052696;28;20050;-73
2022/03/26 08:31:18;;;;;;;40.92;26.42;;;;;;;;;;5050590;28;20079;-73
2022/03/26 08:33:45;;;;;;;38.08;25.08;;;;;;;;;;5049518;28;20511;-71
2022/03/26 08:36:12;;;;;;;38.33;26.00;;;;;;;;;;5050070;28;20048;-71
2022/03/26 08:38:38;;;;;;;36.42;25.10;;;;;;;;;;5052613;28;20480;-74
2022/03/26 08:41:04;;;;;;;33.83;24.58;;;;;;;;;;5054912;28;20090;-74
2022/03/26 08:43:31;;;;;;;35.45;24.33;;;;;;;;;;5049766;28;20063;-70
2022/03/26 08:45:57;;;;;;;31.48;23.35;;;;;;;;;;5049208;28;20404;-71
2022/03/26 08:48:23;;;;;;;31.30;22.90;;;;;;;;;;5042028;28;20096;-71
2022/03/26 08:50:49;;;;;;;33.63;23.70;;;;;;;;;;5051894;28;20551;-72
2022/03/26 08:53:15;;;;;;;32.80;23.35;;;;;;;;;;5053418;28;20032;-71
2022/03/26 08:55:41;;;;;;;39.45;23.33;;;;;;;;;;5048897;28;20029;-69
2022/03/26 08:58:07;;;;;;;42.67;23.25;;;;;;;;;;5054768;28;20028;-71
2022/03/26 09:00:34;;;;;;;35.03;23.35;;;;;;;;;;5052491;28;20029;-70
2022/03/26 09:03:01;;;;;;;39.10;23.17;;;;;;;;;;5051192;28;20087;-70
2022/03/26 09:05:27;;;;;;;37.15;22.10;;;;;;;;;;5054229;28;20031;-70
2022/03/26 09:07:53;;;;;;;31.95;21.77;;;;;;;;;;5056571;28;20025;-70
2022/03/26 09:10:19;;;;;;;34.25;21.77;;;;;;;;;;5051588;28;20013;-71
2022/03/26 09:12:46;;;;;;;32.95;21.10;;;;;;;;;;5054829;28;20092;-70
2022/03/26 09:15:12;;;;;;;33.50;21.50;;;;;;;;;;5048070;28;20025;-70
2022/03/26 09:17:38;;;;;;;32.58;20.77;;;;;;;;;;5051562;28;20032;-71
2022/03/26 09:20:08;;;;;;;30.13;21.35;;;;;;;;;;5049673;28;20033;-71
2022/03/26 09:22:35;;;;;;;34.97;21.48;;;;;;;;;;5047936;28;20460;-71
2022/03/26 09:25:01;;;;;;;36.22;21.13;;;;;;;;;;5049951;28;20029;-71
2022/03/26 09:27:27;;;;;;;34.17;20.77;;;;;;;;;;5050573;28;20025;-72
2022/03/26 09:29:53;;;;;;;30.35;20.48;;;;;;;;;;5052152;28;20426;-71
2022/03/26 09:32:20;;;;;;;31.30;19.75;;;;;;;;;;5049420;28;20041;-72
2022/03/26 09:34:46;;;;;;;30.27;18.65;;;;;;;;;;5049647;28;20155;-71
2022/03/26 09:37:13;;;;;;;30.17;17.13;;;;;;;;;;5054962;28;20037;-71
2022/03/26 09:39:39;;;;;;;29.63;17.52;;;;;;;;;;5054707;28;20036;-71
2022/03/26 09:42:05;;;;;;;29.02;17.20;;;;;;;;;;5039060;28;20034;-73
2022/03/26 09:44:35;;;;;;;30.73;15.75;;;;;;;;;;5050078;28;20059;-70
2022/03/26 09:47:04;;;;;;;30.02;17.15;;;;;;;;;;5052151;28;20029;-71
2022/03/26 09:49:30;;;;;;;25.95;15.82;;;;;;;;;;5053875;28;20412;-70
2022/03/26 09:51:56;;;;;;;30.38;17.00;;;;;;;;;;5053677;28;20021;-71
2022/03/26 09:54:25;;;;;;;28.00;17.38;;;;;;;;;;5051675;28;20438;-70
2022/03/26 09:56:51;;;;;;;29.85;16.35;;;;;;;;;;5045671;28;20032;-70
2022/03/26 09:59:21;;;;;;;30.92;18.15;;;;;;;;;;5051403;28;20108;-70
2022/03/26 10:01:47;;;;;;;31.63;17.35;;;;;;;;;;5048342;28;20389;-71
2022/03/26 10:04:14;;;;;;;30.35;18.05;;;;;;;;;;5038013;28;20025;-71
2022/03/26 10:06:53;;;;;;;33.80;18.17;;;;;;;;;;5037128;28;20037;-69
2022/03/26 10:09:32;;;;;;;31.48;18.75;;;;;;;;;;5054497;28;20096;-70
2022/03/26 10:12:07;;;;;;;30.58;17.88;;;;;;;;;;5048743;28;20098;-72
2022/03/26 10:14:37;;;;;;;32.13;19.52;;;;;;;;;;5074615;28;20033;-70
2022/03/26 10:17:14;;;;;;;39.40;19.23;;;;;;;;;;5050309;28;20429;-71
2022/03/26 10:19:43;;;;;;;36.13;19.67;;;;;;;;;;5054597;28;20043;-70
2022/03/26 10:22:22;;;;;;;30.75;19.40;;;;;;;;;;5051983;28;20036;-69
2022/03/26 10:24:48;;;;;;;34.17;20.17;;;;;;;;;;5050113;28;20289;-71
2022/03/26 10:27:14;;;;;;;30.98;19.40;;;;;;;;;;5054511;28;20032;-71
2022/03/26 10:29:56;;;;;;;36.92;21.58;;;;;;;;;;5051173;28;20356;-70
2022/03/26 10:32:39;;;;;;;34.40;20.42;;;;;;;;;;5053090;28;20028;-70
2022/03/26 10:35:06;;;;;;;33.25;21.00;;;;;;;;;;5053698;28;20380;-70
2022/03/26 10:37:42;;;;;;;36.13;20.45;;;;;;;;;;5048259;28;20150;-72
2022/03/26 10:40:27;;;;;;;34.30;20.27;;;;;;;;;;5055650;28;20120;-70
2022/03/26 10:42:57;;;;;;;31.08;19.55;;;;;;;;;;5051905;28;20041;-71
2022/03/26 10:45:24;;;;;;;32.20;19.73;;;;;;;;;;5052222;28;20072;-72
2022/03/26 10:47:52;;;;;;;38.03;20.50;;;;;;;;;;5051389;28;20485;-69
2022/03/26 10:50:19;;;;;;;34.33;20.20;;;;;;;;;;5054380;28;20480;-70
2022/03/26 10:52:45;;;;;;;33.85;19.42;;;;;;;;;;5052928;28;20028;-70
2022/03/26 10:55:18;;;;;;;36.53;20.80;;;;;;;;;;5053795;28;20097;-69
2022/03/26 10:57:46;;;;;;;34.80;20.20;;;;;;;;;;5051928;28;20091;-71
2022/03/26 11:00:16;;;;;;;37.28;20.83;;;;;;;;;;5055048;28;20021;-71
2022/03/26 11:02:43;;;;;;;36.75;20.35;;;;;;;;;;5057247;28;20041;-74
2022/03/26 11:05:09;;;;;;;35.15;21.10;;;;;;;;;;5057624;28;20036;-73
2022/03/26 11:07:36;;;;;;;36.80;21.10;;;;;;;;;;5067574;28;20093;-73
2022/03/26 11:10:04;;;;;;;32.60;19.67;;;;;;;;;;5063085;28;20029;-71
2022/03/26 11:12:30;;;;;;;39.45;21.60;;;;;;;;;;5064559;28;20101;-72
2022/03/26 11:14:58;;;;;;;41.05;21.73;;;;;;;;;;5056116;28;20043;-72
2022/03/26 11:17:26;;;;;;;40.50;23.20;;;;;;;;;;5055696;28;20033;-72
2022/03/26 11:20:05;;;;;;;37.53;22.90;;;;;;;;;;5053972;28;20280;-73
2022/03/26 11:22:40;;;;;;;41.22;24.10;;;;;;;;;;5060268;28;20020;-75
2022/03/26 11:25:25;;;;;;;40.92;23.33;;;;;;;;;;5055682;28;20025;-72
2022/03/26 11:28:07;;;;;;;38.10;22.67;;;;;;;;;;5052300;28;20019;-72
2022/03/26 11:30:33;;;;;;;38.92;23.30;;;;;;;;;;5050859;28;20042;-73
2022/03/26 11:33:12;;;;;;;43.00;23.63;;;;;;;;;;5055102;28;20079;-73
2022/03/26 11:36:10;;;;;;;35.28;22.35;;;;;;;;;;5066235;22;20072;-74
2022/03/26 11:38:37;;;;;;;40.97;23.42;;;;;;;;;;5009752;28;20124;-70
2022/03/26 11:41:05;;;;;;;39.65;23.92;;;;;;;;;;5049074;28;20025;-71
2022/03/26 11:43:43;;;;;;;38.58;24.27;;;;;;;;;;5055339;28;20025;-70
2022/03/26 11:51:52;;;;;;;42.47;23.95;;;;;;;;;;5028766;28;20449;-70
2022/03/26 11:54:18;;;;;;;44.95;25.65;;;;;;;;;;5034750;28;20477;-70
2022/03/26 11:56:47;;;;;;;39.22;24.08;;;;;;;;;;5036272;28;20025;-71
2022/03/26 11:59:15;;;;;;;37.70;23.13;;;;;;;;;;5032250;28;20404;-71
2022/03/26 12:01:51;;;;;;;40.60;24.48;;;;;;;;;;5035668;28;20026;-71
2022/03/26 12:04:17;;;;;;;43.83;24.85;;;;;;;;;;5033371;28;20108;-70
2022/03/26 12:06:50;;;;;;;43.10;24.95;;;;;;;;;;5042515;28;20087;-72
2022/03/26 12:09:37;;;;;;;46.10;25.98;;;;;;;;;;5027666;28;20105;-70
2022/03/26 12:12:10;;;;;;;45.13;24.35;;;;;;;;;;5034644;28;20021;-71
2022/03/26 12:14:56;;;;;;;44.28;26.15;;;;;;;;;;5035321;28;20026;-71
2022/03/26 12:17:40;;;;;;;45.85;25.55;;;;;;;;;;5032123;28;20032;-70
2022/03/26 12:20:18;;;;;;;47.08;25.63;;;;;;;;;;5034952;28;20030;-70
2022/03/26 12:22:44;;;;;;;46.33;25.83;;;;;;;;;;5036668;28;20428;-70
2022/03/26 12:25:11;;;;;;;49.28;25.92;;;;;;;;;;5037658;28;20025;-70
2022/03/26 12:27:40;;;;;;;49.88;28.55;;;;;;;;;;5031812;28;20080;-71
2022/03/26 12:30:07;;;;;;;51.67;27.67;;;;;;;;;;5019962;28;20511;-71
2022/03/26 12:32:33;;;;;;;48.85;27.77;;;;;;;;;;5033171;28;20033;-71
2022/03/26 12:35:09;;;;;;;56.03;29.55;;;;;;;;;;5035451;28;20080;-70
2022/03/26 12:37:36;;;;;;;54.40;29.55;;;;;;;;;;5028768;28;20017;-70
2022/03/26 12:40:04;;;;;;;53.63;28.70;;;;;;;;;;5036378;28;20034;-71
2022/03/26 12:42:30;;;;;;;52.95;29.02;;;;;;;;;;5037599;28;20029;-71
2022/03/26 12:44:56;;;;;;;52.05;28.70;;;;;;;;;;5035556;28;20032;-71
2022/03/26 12:47:24;;;;;;;54.05;30.35;;;;;;;;;;5035759;28;20025;-71
2022/03/26 12:49:51;;;;;;;52.65;28.42;;;;;;;;;;5034666;28;20456;-71
2022/03/26 12:52:20;;;;;;;49.83;29.27;;;;;;;;;;5034127;28;20026;-71
2022/03/26 12:54:53;;;;;;;53.03;28.35;;;;;;;;;;5041783;28;20083;-70
2022/03/26 12:57:19;;;;;;;52.03;28.00;;;;;;;;;;5067038;28;20029;-70
2022/03/26 12:59:52;;;;;;;47.00;27.25;;;;;;;;;;5044005;28;20060;-71
2022/03/26 13:02:18;;;;;;;48.72;26.48;;;;;;;;;;5056889;28;20020;-71
2022/03/26 13:04:50;;;;;;;48.67;26.30;;;;;;;;;;5041251;28;20065;-71
2022/03/26 13:07:16;;;;;;;48.17;26.00;;;;;;;;;;5040069;28;20025;-71
2022/03/26 13:09:41;;;;;;;51.72;27.40;;;;;;;;;;5026681;28;20026;-70
2022/03/26 13:12:07;;;;;;;52.17;26.23;;;;;;;;;;5045780;28;20029;-70
2022/03/26 13:14:33;;;;;;;44.60;24.45;;;;;;;;;;5034911;28;20030;-71
2022/03/26 13:16:59;;;;;;;47.58;25.67;;;;;;;;;;5049651;28;20101;-70
2022/03/26 13:19:32;;;;;;;46.85;24.92;;;;;;;;;;5031036;28;20021;-70
2022/03/26 13:22:02;;;;;;;42.53;23.45;;;;;;;;;;5031694;28;20473;-70
2022/03/26 13:24:28;;;;;;;44.63;22.98;;;;;;;;;;5029298;28;20568;-71
2022/03/26 13:26:59;;;;;;;40.45;21.92;;;;;;;;;;5031630;28;20061;-70
2022/03/26 13:29:27;;;;;;;42.88;21.98;;;;;;;;;;5024149;28;20029;-70
2022/03/26 13:31:58;;;;;;;43.25;22.58;;;;;;;;;;5028736;28;20031;-70
2022/03/26 13:34:26;;;;;;;40.17;20.67;;;;;;;;;;5032146;28;20401;-70
2022/03/26 13:36:53;;;;;;;35.20;20.02;;;;;;;;;;5037494;28;20029;-69
2022/03/26 13:39:20;;;;;;;37.45;19.35;;;;;;;;;;5030626;28;20045;-71
2022/03/26 13:41:46;;;;;;;35.97;19.85;;;;;;;;;;5034440;28;20067;-70
2022/03/26 13:44:12;;;;;;;32.50;17.75;;;;;;;;;;5028250;28;20359;-70
2022/03/26 13:46:39;;;;;;;29.83;16.58;;;;;;;;;;5048835;28;20040;-72
2022/03/26 13:49:05;;;;;;;24.88;14.13;;;;;;;;;;5027167;28;20071;-70
2022/03/26 13:51:33;;;;;;;29.00;15.30;;;;;;;;;;5033260;28;20046;-72